Time;durP1;ratioP1;P1;durP2;ratioP2;P2;SDS_P1;SDS_P2;PMS_P1;PMS_P2;Temp;Humidity;BMP_temperature;BMP_pressure;BME280_temperature;BME280_humidity;BME280_pressure;Samples;Min_cycle;Max_cycle;Signal;HPM_P1;HPM_P2
2022/01/22 00:03:27;;;;;;;16.42;7.97;;;4.10;99.90;;;;;;7224171;32;20124;-74
2022/01/22 00:07:29;;;;;;;15.25;7.47;;;4.20;99.90;;;;;;7209433;32;20181;-75
2022/01/22 00:11:36;;;;;;;15.75;7.30;;;4.10;99.90;;;;;;7213543;32;20128;-76
2022/01/22 00:15:41;;;;;;;22.55;8.10;;;4.20;99.90;;;;;;7223310;32;20297;-76
2022/01/22 00:19:43;;;;;;;14.87;7.15;;;4.20;99.90;;;;;;7218085;32;20125;-76
2022/01/22 00:23:54;;;;;;;15.90;7.60;;;4.10;99.90;;;;;;7203940;32;20226;-75
2022/01/22 00:27:56;;;;;;;23.80;7.97;;;4.20;99.90;;;;;;7226005;32;20665;-75
2022/01/22 00:31:58;;;;;;;17.87;7.65;;;4.20;99.90;;;;;;7231454;32;20614;-75
2022/01/22 00:36:00;;;;;;;20.85;7.93;;;4.20;99.90;;;;;;7228473;32;20178;-75
2022/01/22 00:40:04;;;;;;;17.95;8.73;;;4.20;99.90;;;;;;7216845;32;20139;-76
2022/01/22 00:44:06;;;;;;;17.55;8.48;;;4.10;99.90;;;;;;7225667;32;20239;-75
2022/01/22 00:48:08;;;;;;;24.70;9.25;;;4.20;99.90;;;;;;7202649;32;20117;-75
2022/01/22 00:52:10;;;;;;;24.08;9.02;;;4.20;99.90;;;;;;7204017;32;20526;-75
2022/01/22 00:56:13;;;;;;;16.77;8.15;;;4.20;99.90;;;;;;7230808;32;20105;-74
2022/01/22 01:00:16;;;;;;;15.45;7.95;;;4.20;99.90;;;;;;7216998;32;20208;-75
2022/01/22 01:04:18;;;;;;;16.70;8.43;;;4.10;99.90;;;;;;7206014;32;20377;-75
2022/01/22 01:08:20;;;;;;;23.50;8.98;;;4.10;99.90;;;;;;7221383;32;20185;-75
2022/01/22 01:12:22;;;;;;;18.48;8.65;;;4.10;99.90;;;;;;7217325;32;20773;-75
2022/01/22 01:37:29;;;;;;;18.17;9.40;;;4.10;99.90;;;;;;7227641;32;20173;-75
2022/01/22 01:46:05;;;;;;;16.70;9.27;;;4.10;99.90;;;;;;7203377;32;20221;-75
2022/01/22 01:50:07;;;;;;;22.05;10.82;;;4.10;99.90;;;;;;7211813;32;20263;-75
2022/01/22 01:58:30;;;;;;;19.65;11.35;;;4.10;99.90;;;;;;7234043;32;20144;-75
2022/01/22 02:02:34;;;;;;;24.75;12.88;;;4.10;99.90;;;;;;7237608;32;20193;-75
2022/01/22 02:06:36;;;;;;;22.90;13.00;;;4.10;99.90;;;;;;7226273;32;20233;-75
2022/01/22 02:10:45;;;;;;;26.48;12.95;;;4.00;99.90;;;;;;7215448;32;20132;-76
2022/01/22 02:28:00;;;;;;;22.40;14.60;;;4.10;99.90;;;;;;7210146;32;20223;-75
2022/01/22 02:36:56;;;;;;;24.33;13.98;;;4.10;99.90;;;;;;7227256;32;20175;-75
2022/01/22 02:40:57;;;;;;;20.45;13.15;;;4.10;99.90;;;;;;7226955;32;20225;-76
2022/01/22 02:44:58;;;;;;;32.95;15.68;;;4.10;99.90;;;;;;7232041;32;20156;-74
2022/01/22 02:49:00;;;;;;;28.08;15.88;;;4.00;99.90;;;;;;7212582;32;20172;-74
2022/01/22 02:53:12;;;;;;;28.83;15.95;;;4.00;99.90;;;;;;7222217;32;20527;-75
2022/01/22 02:57:14;;;;;;;32.30;17.83;;;4.10;99.90;;;;;;7233978;32;20188;-75
2022/01/22 03:01:17;;;;;;;31.67;17.62;;;4.10;99.90;;;;;;7228712;32;20215;-75
2022/01/22 03:05:20;;;;;;;37.22;18.27;;;4.10;99.90;;;;;;7228190;32;20225;-75
2022/01/22 03:09:28;;;;;;;34.53;18.65;;;4.10;99.90;;;;;;7223438;32;20139;-75
2022/01/22 03:22:12;;;;;;;34.78;21.25;;;4.10;99.90;;;;;;7231563;32;20116;-75
2022/01/22 03:30:35;;;;;;;30.50;20.05;;;4.10;99.90;;;;;;7225353;32;20143;-75
2022/01/22 03:34:43;;;;;;;32.53;20.42;;;4.10;99.90;;;;;;7215738;32;20250;-76
2022/01/22 03:38:46;;;;;;;29.45;20.15;;;4.10;99.90;;;;;;7224149;32;20143;-75
2022/01/22 03:42:49;;;;;;;35.08;19.90;;;4.10;99.90;;;;;;7214376;32;20109;-75
2022/01/22 03:46:51;;;;;;;34.88;20.55;;;4.10;99.90;;;;;;7233649;32;20128;-74
2022/01/22 03:50:53;;;;;;;34.42;20.88;;;4.10;99.90;;;;;;7224824;32;20285;-75
2022/01/22 03:54:55;;;;;;;33.42;19.77;;;4.20;99.90;;;;;;7229270;32;20162;-77
2022/01/22 03:58:57;;;;;;;36.00;20.15;;;4.20;99.90;;;;;;7213050;32;20175;-75
2022/01/22 04:03:26;;;;;;;32.78;20.27;;;4.10;99.90;;;;;;7230279;32;20180;-76
2022/01/22 04:11:38;;;;;;;33.10;19.75;;;4.10;99.90;;;;;;7228869;32;20180;-75
2022/01/22 04:15:41;;;;;;;31.67;20.77;;;4.20;99.90;;;;;;7229478;32;20188;-74
2022/01/22 04:28:24;;;;;;;28.38;19.02;;;4.20;99.90;;;;;;7231078;32;20792;-74
2022/01/22 04:32:28;;;;;;;35.38;18.02;;;4.20;99.90;;;;;;7228758;32;20238;-75
2022/01/22 04:36:30;;;;;;;37.50;21.00;;;4.30;99.90;;;;;;7223229;32;20199;-75
2022/01/22 04:40:32;;;;;;;28.87;19.73;;;4.30;99.90;;;;;;7221624;32;20136;-76
2022/01/22 04:44:40;;;;;;;31.77;21.67;;;4.30;99.90;;;;;;7228270;32;20133;-75
2022/01/22 04:48:53;;;;;;;32.83;20.50;;;4.30;99.90;;;;;;7227752;32;20232;-76
2022/01/22 04:57:12;;;;;;;41.08;22.58;;;4.30;99.90;;;;;;7219448;32;20519;-75
2022/01/22 05:01:13;;;;;;;39.67;21.98;;;4.30;99.90;;;;;;7223726;32;20497;-75
2022/01/22 05:05:15;;;;;;;37.83;22.30;;;4.40;99.90;;;;;;7217370;32;20199;-75
2022/01/22 05:09:17;;;;;;;38.28;23.30;;;4.40;99.90;;;;;;7202096;32;20142;-77
2022/01/22 05:13:19;;;;;;;35.65;23.45;;;4.30;99.90;;;;;;7227416;32;20113;-75
2022/01/22 05:17:21;;;;;;;46.03;25.08;;;4.40;99.90;;;;;;7213654;32;20109;-75
2022/01/22 05:21:24;;;;;;;39.97;23.05;;;4.40;99.90;;;;;;7228433;32;20255;-75
2022/01/22 05:25:35;;;;;;;40.58;25.00;;;4.50;99.90;;;;;;7230676;32;20240;-76
2022/01/22 05:37:52;;;;;;;38.40;25.30;;;4.50;99.90;;;;;;7230175;32;20116;-75
2022/01/22 05:41:59;;;;;;;45.63;26.92;;;4.50;99.90;;;;;;7235818;32;20151;-75
2022/01/22 05:46:00;;;;;;;44.30;24.25;;;4.50;99.90;;;;;;7250676;32;20180;-76
2022/01/22 05:50:09;;;;;;;42.72;26.50;;;4.60;99.90;;;;;;7219499;32;20227;-76
2022/01/22 06:02:33;;;;;;;39.28;25.12;;;4.60;99.90;;;;;;7225110;32;20101;-76
2022/01/22 06:06:35;;;;;;;46.40;26.30;;;4.60;99.90;;;;;;7234578;32;20516;-75
2022/01/22 06:10:39;;;;;;;47.35;25.80;;;4.60;99.90;;;;;;7220097;32;20236;-77
2022/01/22 06:14:41;;;;;;;44.08;26.58;;;4.60;99.90;;;;;;7231138;32;20117;-76
2022/01/22 06:18:43;;;;;;;45.12;26.20;;;4.60;99.90;;;;;;7226388;32;20171;-76
2022/01/22 06:22:45;;;;;;;40.28;22.50;;;4.60;99.90;;;;;;7233003;32;20112;-76
2022/01/22 06:26:47;;;;;;;37.40;23.55;;;4.70;99.90;;;;;;7214684;32;20128;-76
2022/01/22 06:30:49;;;;;;;39.22;23.75;;;4.60;99.90;;;;;;7212427;32;20563;-75
2022/01/22 06:34:51;;;;;;;42.22;24.08;;;4.70;99.90;;;;;;7212161;32;20666;-77
2022/01/22 06:38:58;;;;;;;43.45;23.30;;;4.60;99.90;;;;;;7214960;32;20366;-76
2022/01/22 06:43:01;;;;;;;40.72;23.50;;;4.70;99.90;;;;;;7223926;32;20113;-76
2022/01/22 06:47:03;;;;;;;43.97;23.55;;;4.70;99.90;;;;;;7222079;32;20121;-76
2022/01/22 06:51:05;;;;;;;40.53;24.17;;;4.80;99.90;;;;;;7226188;32;20154;-76
2022/01/22 06:55:07;;;;;;;48.00;26.77;;;4.80;99.90;;;;;;7213659;32;20196;-76
2022/01/22 06:59:13;;;;;;;44.10;28.30;;;4.80;99.90;;;;;;7226260;32;20371;-76
2022/01/22 07:03:15;;;;;;;45.67;26.27;;;4.80;99.90;;;;;;7228842;32;20233;-76
2022/01/22 07:07:16;;;;;;;39.80;26.10;;;4.80;99.90;;;;;;7218221;32;20138;-75
2022/01/22 07:11:18;;;;;;;41.63;25.65;;;4.80;99.90;;;;;;7196874;32;20155;-76
2022/01/22 07:15:21;;;;;;;43.38;26.23;;;4.80;99.90;;;;;;7220116;32;20117;-76
2022/01/22 07:19:22;;;;;;;41.15;25.17;;;4.80;99.90;;;;;;7222726;32;20118;-76
2022/01/22 07:27:38;;;;;;;37.33;23.48;;;4.80;99.90;;;;;;7228032;32;20495;-76
2022/01/22 07:31:54;;;;;;;35.40;23.83;;;4.80;99.90;;;;;;7214034;32;20117;-75
2022/01/22 07:35:56;;;;;;;36.60;24.75;;;4.80;99.90;;;;;;7223766;32;20138;-75
2022/01/22 07:39:57;;;;;;;38.40;23.45;;;4.80;99.90;;;;;;7214224;32;20117;-77
2022/01/22 07:43:59;;;;;;;44.25;23.05;;;4.80;99.90;;;;;;7221799;32;20128;-76
2022/01/22 07:48:02;;;;;;;38.95;24.20;;;4.90;99.90;;;;;;7231013;32;20174;-76
2022/01/22 07:52:08;;;;;;;39.08;25.83;;;4.80;99.90;;;;;;7226348;32;20675;-77
2022/01/22 07:56:14;;;;;;;42.47;25.55;;;4.80;99.90;;;;;;7211495;32;20220;-75
2022/01/22 08:00:16;;;;;;;42.85;23.08;;;4.80;99.90;;;;;;7220550;32;20601;-76
2022/01/22 08:04:23;;;;;;;37.83;21.98;;;4.90;99.90;;;;;;7234103;32;20116;-75
2022/01/22 08:08:25;;;;;;;34.35;22.52;;;4.90;99.90;;;;;;7217392;32;20682;-76
2022/01/22 08:12:27;;;;;;;40.50;24.25;;;4.90;99.90;;;;;;7214919;32;20282;-76
2022/01/22 08:16:28;;;;;;;35.15;23.00;;;4.80;99.90;;;;;;7218257;32;20182;-76
2022/01/22 08:20:30;;;;;;;40.45;24.10;;;4.90;99.90;;;;;;7227047;32;20238;-74
2022/01/22 08:24:32;;;;;;;40.83;22.40;;;4.90;99.90;;;;;;7243765;32;20367;-74
2022/01/22 08:36:56;;;;;;;34.78;21.17;;;4.90;99.90;;;;;;7215199;32;20477;-76
2022/01/22 08:40:58;;;;;;;34.97;22.77;;;5.00;99.90;;;;;;7228420;32;20208;-75
2022/01/22 08:44:59;;;;;;;38.03;23.48;;;5.00;99.90;;;;;;7232385;32;20163;-77
2022/01/22 08:49:04;;;;;;;36.08;22.05;;;5.00;99.90;;;;;;7220433;32;20191;-76
2022/01/22 08:53:06;;;;;;;38.40;23.20;;;5.10;99.90;;;;;;7219176;32;20809;-74
2022/01/22 08:57:08;;;;;;;36.05;22.48;;;5.10;99.90;;;;;;7220423;32;21381;-76
2022/01/22 09:01:10;;;;;;;35.60;22.98;;;5.10;99.90;;;;;;7219192;32;20593;-76
2022/01/22 09:05:16;;;;;;;37.35;23.30;;;5.10;99.90;;;;;;7228399;32;20741;-76
2022/01/22 09:09:18;;;;;;;35.83;23.20;;;5.20;99.90;;;;;;7228285;32;20160;-76
2022/01/22 09:13:22;;;;;;;40.53;22.98;;;5.20;99.90;;;;;;7215788;32;20418;-76
2022/01/22 09:17:23;;;;;;;41.35;24.73;;;5.10;99.90;;;;;;7232892;32;20138;-73
2022/01/22 09:21:26;;;;;;;39.53;24.75;;;5.20;99.90;;;;;;7243130;32;20230;-77
2022/01/22 09:25:28;;;;;;;39.88;25.30;;;5.20;99.90;;;;;;7208610;32;20133;-76
2022/01/22 09:29:30;;;;;;;37.70;23.05;;;5.20;99.90;;;;;;7216886;32;20223;-77
2022/01/22 09:33:32;;;;;;;38.17;23.67;;;5.20;99.90;;;;;;7225169;32;20211;-77
2022/01/22 09:37:34;;;;;;;40.35;23.70;;;5.30;99.90;;;;;;7231982;32;20200;-76
2022/01/22 09:41:36;;;;;;;43.38;24.37;;;5.30;99.90;;;;;;7224282;32;20287;-77
2022/01/22 09:45:58;;;;;;;36.15;22.95;;;5.40;99.90;;;;;;7227244;32;20181;-77
2022/01/22 09:50:00;;;;;;;34.90;23.00;;;5.40;99.90;;;;;;7226002;32;20176;-77
2022/01/22 09:54:02;;;;;;;37.70;22.95;;;5.40;99.90;;;;;;7231680;32;20185;-74
2022/01/22 09:58:04;;;;;;;33.22;22.75;;;5.30;99.90;;;;;;7249221;32;20105;-74
2022/01/22 10:02:08;;;;;;;39.72;24.75;;;5.40;99.90;;;;;;7217707;32;20215;-77
2022/01/22 10:06:25;;;;;;;41.13;24.08;;;5.40;99.90;;;;;;7214754;32;20113;-75
2022/01/22 10:10:37;;;;;;;37.30;23.65;;;5.30;99.90;;;;;;7217914;32;20661;-77
2022/01/22 10:15:13;;;;;;;37.08;23.77;;;5.40;99.90;;;;;;7212046;32;20818;-75
2022/01/22 10:19:17;;;;;;;42.67;25.05;;;5.50;99.90;;;;;;7209442;32;20227;-78
2022/01/22 10:23:25;;;;;;;35.90;24.12;;;5.50;99.90;;;;;;7225244;32;20126;-76
2022/01/22 10:27:35;;;;;;;41.70;25.75;;;5.60;99.90;;;;;;7221690;32;20286;-77
2022/01/22 10:31:41;;;;;;;44.50;26.85;;;5.60;99.90;;;;;;7209362;32;20257;-78
2022/01/22 10:35:43;;;;;;;44.42;26.30;;;5.60;99.90;;;;;;7216777;32;20274;-77
2022/01/22 10:39:51;;;;;;;38.63;24.30;;;5.70;99.90;;;;;;7223674;32;20303;-75
2022/01/22 10:43:55;;;;;;;40.12;24.00;;;5.70;99.90;;;;;;7214861;32;20223;-77
2022/01/22 10:48:22;;;;;;;41.42;24.50;;;5.70;99.90;;;;;;7211654;32;20220;-77
2022/01/22 10:52:24;;;;;;;36.08;21.05;;;5.90;99.90;;;;;;7220498;32;20207;-77
2022/01/22 10:56:31;;;;;;;35.42;21.87;;;5.80;99.90;;;;;;7212083;32;20866;-77
2022/01/22 11:00:37;;;;;;;34.45;19.02;;;5.90;99.90;;;;;;7228764;32;20342;-77
2022/01/22 11:04:41;;;;;;;32.92;19.17;;;5.90;99.90;;;;;;7210379;32;20609;-77
2022/01/22 11:08:45;;;;;;;36.97;19.75;;;6.00;99.90;;;;;;7222091;32;20109;-77
2022/01/22 11:12:47;;;;;;;32.45;17.45;;;6.00;99.90;;;;;;7224450;32;20230;-77
2022/01/22 11:16:53;;;;;;;26.35;15.70;;;6.10;99.90;;;;;;7227252;32;20116;-77
2022/01/22 11:20:56;;;;;;;28.60;17.12;;;6.10;99.90;;;;;;7226708;32;20569;-77
2022/01/22 11:24:59;;;;;;;28.77;16.62;;;6.20;99.90;;;;;;7223294;32;20323;-76
2022/01/22 11:29:01;;;;;;;28.23;15.32;;;6.10;99.90;;;;;;7212318;32;20171;-77
2022/01/22 11:33:15;;;;;;;26.98;15.18;;;6.30;99.90;;;;;;7225971;32;20147;-75
2022/01/22 11:37:29;;;;;;;24.33;14.32;;;6.30;99.90;;;;;;7227795;32;20738;-77
2022/01/22 11:41:32;;;;;;;27.50;14.48;;;6.30;99.90;;;;;;7225461;32;20136;-78
2022/01/22 11:45:42;;;;;;;21.55;14.50;;;6.20;99.90;;;;;;7219202;32;20120;-77
2022/01/22 11:50:06;;;;;;;25.52;14.60;;;6.10;99.90;;;;;;7230301;32;20120;-77
2022/01/22 11:54:08;;;;;;;27.25;15.43;;;6.20;99.90;;;;;;7225045;32;20199;-77
2022/01/22 11:58:11;;;;;;;25.85;16.60;;;6.10;99.90;;;;;;7211882;32;20256;-77
2022/01/22 12:02:17;;;;;;;26.58;15.60;;;6.10;99.90;;;;;;7218725;32;20236;-77
2022/01/22 12:06:19;;;;;;;29.95;16.90;;;6.10;99.90;;;;;;7223215;32;20307;-78
2022/01/22 12:10:40;;;;;;;27.15;16.15;;;6.10;99.90;;;;;;7213676;32;20176;-77
2022/01/22 12:14:56;;;;;;;29.08;16.58;;;6.10;99.90;;;;;;7220736;32;20191;-77
2022/01/22 12:19:00;;;;;;;27.42;17.02;;;6.00;99.90;;;;;;7228488;32;20209;-77
2022/01/22 12:23:09;;;;;;;30.60;17.25;;;6.00;99.90;;;;;;7226087;32;20474;-77
2022/01/22 12:28:04;;;;;;;34.92;16.37;;;6.00;99.90;;;;;;7234325;32;20108;-77
2022/01/22 12:32:07;;;;;;;24.73;14.73;;;6.00;99.90;;;;;;7188827;32;20164;-76
2022/01/22 12:36:19;;;;;;;25.17;14.75;;;6.00;99.90;;;;;;7232002;32;20517;-75
2022/01/22 12:40:29;;;;;;;27.45;15.10;;;6.00;99.90;;;;;;7212774;32;20474;-76
2022/01/22 12:44:34;;;;;;;27.55;15.32;;;6.00;99.90;;;;;;7224881;32;20180;-77
2022/01/22 12:48:38;;;;;;;28.62;15.18;;;6.10;99.90;;;;;;7223804;32;20135;-74
2022/01/22 12:52:45;;;;;;;26.23;14.75;;;6.00;99.90;;;;;;7240384;32;20475;-76
2022/01/22 12:56:51;;;;;;;27.35;15.43;;;6.10;99.90;;;;;;7234520;32;20194;-76
2022/01/22 13:01:35;;;;;;;24.23;13.65;;;6.00;99.90;;;;;;7217914;32;20112;-77
2022/01/22 13:05:44;;;;;;;29.00;15.50;;;6.00;99.90;;;;;;7204057;32;20224;-77
2022/01/22 13:09:49;;;;;;;28.87;15.30;;;6.00;99.90;;;;;;7220479;32;20600;-77
2022/01/22 13:13:51;;;;;;;24.52;14.82;;;5.90;99.90;;;;;;7220461;32;20164;-77
2022/01/22 13:17:59;;;;;;;31.50;15.52;;;6.00;99.90;;;;;;7209850;32;20183;-77
2022/01/22 13:22:02;;;;;;;26.30;16.15;;;6.00;99.90;;;;;;7223106;32;20152;-77
2022/01/22 13:26:07;;;;;;;32.50;15.95;;;6.00;99.90;;;;;;7211264;32;20530;-76
2022/01/22 13:30:12;;;;;;;27.08;15.68;;;6.00;99.90;;;;;;7236229;32;20124;-76
2022/01/22 13:34:27;;;;;;;26.40;16.45;;;6.00;99.90;;;;;;7219571;32;20180;-76
2022/01/22 13:51:43;;;;;;;24.37;16.50;;;6.00;99.90;;;;;;7233569;32;20142;-76
2022/01/22 13:56:09;;;;;;;25.88;16.62;;;6.00;99.90;;;;;;7206776;32;20194;-76
2022/01/22 14:00:20;;;;;;;34.42;16.25;;;6.10;99.90;;;;;;7229099;32;20124;-76
2022/01/22 14:04:49;;;;;;;28.90;18.65;;;6.20;99.90;;;;;;7237126;32;20139;-74
2022/01/22 14:08:51;;;;;;;23.70;17.10;;;6.20;99.90;;;;;;7239770;32;20135;-77
2022/01/22 14:13:00;;;;;;;30.62;18.58;;;6.10;99.90;;;;;;7241109;32;20112;-76
2022/01/22 14:17:10;;;;;;;31.98;18.62;;;6.10;99.90;;;;;;7225936;32;20113;-77
2022/01/22 14:21:20;;;;;;;32.60;18.12;;;6.10;99.90;;;;;;7225463;32;20179;-75
2022/01/22 14:25:23;;;;;;;29.87;18.15;;;6.10;99.90;;;;;;7231692;32;20206;-77
2022/01/22 14:29:25;;;;;;;29.35;17.40;;;6.10;99.90;;;;;;7230328;32;20125;-77
2022/01/22 14:33:41;;;;;;;26.33;16.92;;;6.00;99.90;;;;;;7214476;32;20162;-76
2022/01/22 14:37:43;;;;;;;26.27;14.20;;;6.00;99.90;;;;;;7231757;32;20177;-76
2022/01/22 14:46:12;;;;;;;22.98;13.75;;;6.00;99.90;;;;;;7232644;32;20124;-76
2022/01/22 14:50:14;;;;;;;23.00;12.85;;;5.90;99.90;;;;;;7240272;32;20175;-76
2022/01/22 14:54:19;;;;;;;22.55;13.35;;;6.00;99.90;;;;;;7224623;32;20112;-76
2022/01/22 14:58:20;;;;;;;18.92;12.93;;;6.00;99.90;;;;;;7231032;32;20544;-77
2022/01/22 15:02:24;;;;;;;20.58;12.55;;;6.00;99.90;;;;;;7223709;32;20478;-76
2022/01/22 15:06:28;;;;;;;21.02;11.63;;;5.90;99.90;;;;;;7220333;32;20108;-77
2022/01/22 15:10:30;;;;;;;20.05;11.70;;;5.90;99.90;;;;;;7210966;32;20216;-77
2022/01/22 15:14:32;;;;;;;19.48;10.02;;;5.90;99.90;;;;;;7231004;32;20138;-77
2022/01/22 15:22:45;;;;;;;15.80;9.02;;;5.90;99.90;;;;;;7219216;32;20151;-76
2022/01/22 15:26:47;;;;;;;20.65;10.02;;;5.80;99.90;;;;;;7235897;32;20177;-77
2022/01/22 15:30:51;;;;;;;15.43;8.00;;;5.80;99.90;;;;;;7219487;32;20780;-77
2022/01/22 15:35:00;;;;;;;17.17;7.75;;;5.70;99.90;;;;;;7220837;32;20132;-77
2022/01/22 15:39:04;;;;;;;12.50;6.78;;;5.80;99.90;;;;;;7227096;32;20140;-76
2022/01/22 15:43:07;;;;;;;17.67;6.50;;;5.80;99.90;;;;;;7215257;32;20139;-75
2022/01/22 15:47:11;;;;;;;15.10;8.07;;;5.70;99.90;;;;;;7209193;32;20208;-77
2022/01/22 15:51:12;;;;;;;13.70;7.90;;;5.70;99.90;;;;;;7225752;32;20191;-77
2022/01/22 15:55:14;;;;;;;14.45;6.75;;;5.70;99.90;;;;;;7212651;32;20181;-77
2022/01/22 15:59:16;;;;;;;12.07;5.95;;;5.70;99.90;;;;;;7224194;32;20114;-77
2022/01/22 16:03:18;;;;;;;15.30;8.25;;;5.70;99.90;;;;;;7237859;32;20108;-77
2022/01/22 16:07:24;;;;;;;15.18;7.40;;;5.80;99.90;;;;;;7229680;32;20651;-77
2022/01/22 16:11:47;;;;;;;13.25;7.97;;;5.90;99.90;;;;;;7234164;32;20147;-77
2022/01/22 16:16:09;;;;;;;18.48;9.82;;;5.70;99.90;;;;;;7223506;32;20294;-77
2022/01/22 16:20:11;;;;;;;17.08;9.90;;;5.70;99.90;;;;;;7232461;32;20120;-76
2022/01/22 16:24:15;;;;;;;18.00;11.12;;;5.80;99.90;;;;;;7234857;32;20165;-77
2022/01/22 16:28:17;;;;;;;18.15;11.90;;;5.80;99.90;;;;;;7216697;32;20280;-76
2022/01/22 16:32:20;;;;;;;21.75;12.30;;;5.80;99.90;;;;;;7234082;32;20234;-77
2022/01/22 16:36:22;;;;;;;22.70;13.77;;;5.80;99.90;;;;;;7230815;32;20608;-77
2022/01/22 16:40:25;;;;;;;27.58;13.98;;;5.80;99.90;;;;;;7221498;32;20239;-77
2022/01/22 16:57:34;;;;;;;31.95;16.15;;;5.70;99.90;;;;;;7232259;32;20352;-77
2022/01/22 17:01:38;;;;;;;33.33;16.27;;;5.70;99.90;;;;;;7212992;32;20289;-77
2022/01/22 17:05:42;;;;;;;25.33;15.40;;;5.80;99.90;;;;;;7223200;32;20120;-77
2022/01/22 17:18:06;;;;;;;35.58;20.40;;;5.80;99.90;;;;;;7224538;32;20146;-76
2022/01/22 17:22:09;;;;;;;39.17;22.55;;;5.90;99.90;;;;;;7214855;32;20685;-76
2022/01/22 17:26:10;;;;;;;37.28;21.15;;;5.90;99.90;;;;;;7205364;32;20232;-76
2022/01/22 17:30:13;;;;;;;39.40;23.55;;;5.80;99.90;;;;;;7216701;32;20188;-76
2022/01/22 17:34:15;;;;;;;39.33;24.87;;;5.90;99.90;;;;;;7213462;32;20140;-75
2022/01/22 17:38:17;;;;;;;42.40;26.75;;;5.80;99.90;;;;;;7230701;32;20100;-75
2022/01/22 17:42:21;;;;;;;39.20;24.83;;;5.80;99.90;;;;;;7226864;32;20224;-75
2022/01/22 17:46:22;;;;;;;41.75;26.37;;;5.90;99.90;;;;;;7207760;32;20690;-75
2022/01/22 17:50:24;;;;;;;47.72;26.40;;;5.80;99.90;;;;;;7221857;32;20543;-75
2022/01/22 17:54:26;;;;;;;45.00;27.15;;;5.90;99.90;;;;;;7214795;32;20152;-76
2022/01/22 17:58:28;;;;;;;48.90;29.35;;;5.90;99.90;;;;;;7222859;32;20139;-74
2022/01/22 18:02:33;;;;;;;45.47;28.42;;;5.90;99.90;;;;;;7218307;32;20439;-74
2022/01/22 18:06:37;;;;;;;45.95;29.02;;;5.90;99.90;;;;;;7224401;32;20133;-75
2022/01/22 18:10:41;;;;;;;50.33;29.52;;;5.90;99.90;;;;;;7231486;32;20313;-75
2022/01/22 18:14:42;;;;;;;51.28;30.25;;;5.90;99.90;;;;;;7254961;32;20116;-77
2022/01/22 18:18:46;;;;;;;50.50;30.75;;;5.90;99.90;;;;;;7217715;32;20193;-74
2022/01/22 18:23:01;;;;;;;49.00;30.30;;;5.90;99.90;;;;;;7220703;32;20201;-76
2022/01/22 18:27:04;;;;;;;49.67;30.88;;;5.90;99.90;;;;;;7234540;32;20164;-74
2022/01/22 18:31:06;;;;;;;56.33;33.25;;;5.90;99.90;;;;;;7215501;32;20109;-76
2022/01/22 18:35:08;;;;;;;58.13;33.35;;;5.90;99.90;;;;;;7230469;32;20121;-75
2022/01/22 18:39:11;;;;;;;65.57;35.38;;;5.90;99.90;;;;;;7218789;32;20219;-76
2022/01/22 18:43:19;;;;;;;61.75;34.88;;;5.80;99.90;;;;;;7225395;32;20160;-76
2022/01/22 18:47:22;;;;;;;57.65;33.92;;;5.70;99.90;;;;;;7228120;32;20113;-76
2022/01/22 18:51:25;;;;;;;57.70;34.10;;;5.70;99.90;;;;;;7222271;32;20251;-76
2022/01/22 18:55:26;;;;;;;56.67;32.58;;;5.70;99.90;;;;;;7229183;32;20125;-75
2022/01/22 18:59:32;;;;;;;52.17;32.75;;;5.70;99.90;;;;;;7219394;32;20116;-77
2022/01/22 19:03:33;;;;;;;52.78;32.97;;;5.70;99.90;;;;;;7225463;32;20148;-74
2022/01/22 19:07:40;;;;;;;56.10;33.47;;;5.70;99.90;;;;;;7220046;32;20113;-75
2022/01/22 19:11:42;;;;;;;58.55;33.40;;;5.60;99.90;;;;;;7227026;32;20227;-76
2022/01/22 19:15:44;;;;;;;57.85;33.15;;;5.60;99.90;;;;;;7228185;32;20297;-77
2022/01/22 19:19:47;;;;;;;54.22;32.03;;;5.60;99.90;;;;;;7238619;32;20230;-75
2022/01/22 19:24:01;;;;;;;59.50;32.25;;;5.60;99.90;;;;;;7217669;32;20166;-75
2022/01/22 19:28:04;;;;;;;53.80;31.25;;;5.50;99.90;;;;;;7236867;32;20188;-76
2022/01/22 19:32:06;;;;;;;56.92;33.55;;;5.60;99.90;;;;;;7223025;32;20203;-76
2022/01/22 19:36:11;;;;;;;53.95;31.45;;;5.60;99.90;;;;;;7220220;32;20286;-77
2022/01/22 19:40:14;;;;;;;57.03;32.38;;;5.50;99.90;;;;;;7231726;32;20409;-77
2022/01/22 19:44:20;;;;;;;52.72;31.75;;;5.50;99.90;;;;;;7215719;32;20113;-77
2022/01/22 19:48:22;;;;;;;52.00;30.90;;;5.50;99.90;;;;;;7236293;32;20120;-75
2022/01/22 19:52:25;;;;;;;54.60;30.70;;;5.50;99.90;;;;;;7226767;32;20109;-77
2022/01/22 19:56:28;;;;;;;56.90;32.63;;;5.50;99.90;;;;;;7223964;32;20142;-77
2022/01/22 20:00:31;;;;;;;54.20;31.58;;;5.50;99.90;;;;;;7232983;32;20172;-77
2022/01/22 20:04:34;;;;;;;52.92;30.45;;;5.50;99.90;;;;;;7216757;32;20172;-74
2022/01/22 20:08:37;;;;;;;56.60;30.25;;;5.50;99.90;;;;;;7223873;32;20224;-75
2022/01/22 20:12:39;;;;;;;52.03;30.70;;;5.50;99.90;;;;;;7228501;32;20583;-77
2022/01/22 20:16:47;;;;;;;54.25;30.85;;;5.30;99.90;;;;;;7234615;32;20140;-76
2022/01/22 20:21:01;;;;;;;48.78;29.45;;;5.30;99.90;;;;;;7236399;32;20132;-76
2022/01/22 20:25:23;;;;;;;56.58;32.03;;;5.30;99.90;;;;;;7238119;32;20137;-75
2022/01/22 20:29:25;;;;;;;58.17;31.15;;;5.40;99.90;;;;;;7229926;32;20190;-77
2022/01/22 20:33:47;;;;;;;55.78;31.58;;;5.40;99.90;;;;;;7232764;32;20131;-77
2022/01/22 20:37:49;;;;;;;54.60;31.90;;;5.50;99.90;;;;;;7230301;32;20185;-78
2022/01/22 20:41:50;;;;;;;54.22;30.50;;;5.40;99.90;;;;;;7238140;32;20286;-76
2022/01/22 20:46:13;;;;;;;49.88;29.67;;;5.40;99.90;;;;;;7222529;32;20147;-78
2022/01/22 20:50:23;;;;;;;54.35;31.25;;;5.40;99.90;;;;;;7227264;32;20557;-77
2022/01/22 20:54:25;;;;;;;52.70;30.05;;;5.40;99.90;;;;;;7235050;32;20633;-76
2022/01/22 20:58:35;;;;;;;49.85;28.60;;;5.40;99.90;;;;;;7233623;32;20124;-76
2022/01/22 21:02:37;;;;;;;49.28;28.92;;;5.40;99.90;;;;;;7229608;32;20135;-76
2022/01/22 21:06:39;;;;;;;49.33;28.83;;;5.40;99.90;;;;;;7233115;32;20117;-76
2022/01/22 21:10:44;;;;;;;50.72;29.42;;;5.30;99.90;;;;;;7222274;32;20803;-77
2022/01/22 21:14:53;;;;;;;48.28;29.63;;;5.30;99.90;;;;;;7231571;32;20139;-76
2022/01/22 21:18:59;;;;;;;50.78;29.65;;;5.30;99.90;;;;;;7229759;32;20454;-78
2022/01/22 21:23:02;;;;;;;51.65;30.60;;;5.40;99.90;;;;;;7218585;32;20196;-77
2022/01/22 21:27:04;;;;;;;51.95;29.48;;;5.30;99.90;;;;;;7215485;32;20187;-77
2022/01/22 21:31:12;;;;;;;52.75;30.25;;;5.30;99.90;;;;;;7217240;32;20121;-78
2022/01/22 21:35:14;;;;;;;48.33;29.80;;;5.20;99.90;;;;;;7236387;32;20119;-76
2022/01/22 21:43:36;;;;;;;48.40;29.25;;;5.30;99.90;;;;;;7229133;32;20213;-77
2022/01/22 21:47:38;;;;;;;43.45;26.08;;;5.30;99.90;;;;;;7216040;32;20257;-76
2022/01/22 21:51:40;;;;;;;48.15;27.02;;;5.30;99.90;;;;;;7220716;32;20117;-78
2022/01/22 21:55:42;;;;;;;46.50;28.73;;;5.30;99.90;;;;;;7214191;32;20144;-77
2022/01/22 21:59:44;;;;;;;46.53;27.83;;;5.20;99.90;;;;;;7222778;32;20118;-76
2022/01/22 22:03:47;;;;;;;45.58;28.23;;;5.20;99.90;;;;;;7218331;32;20255;-77
2022/01/22 22:07:49;;;;;;;48.30;27.48;;;5.20;99.90;;;;;;7219969;32;20135;-75
2022/01/22 22:11:51;;;;;;;47.10;27.25;;;5.20;99.90;;;;;;7232353;32;20212;-78
2022/01/22 22:15:54;;;;;;;47.08;28.10;;;5.30;99.90;;;;;;7245759;32;20113;-76
2022/01/22 22:19:56;;;;;;;47.05;26.15;;;5.20;99.90;;;;;;7245581;32;20174;-77
2022/01/22 22:23:59;;;;;;;47.65;26.75;;;5.20;99.90;;;;;;7233531;32;20135;-77
2022/01/22 22:28:02;;;;;;;46.42;26.10;;;5.20;99.90;;;;;;7206933;32;20219;-76
2022/01/22 22:32:05;;;;;;;42.30;26.25;;;5.20;99.90;;;;;;7217168;32;20181;-77
2022/01/22 22:36:09;;;;;;;42.13;24.63;;;5.20;99.90;;;;;;7218340;32;20199;-76
2022/01/22 22:40:14;;;;;;;41.28;25.58;;;5.20;99.90;;;;;;7222367;32;20203;-76
2022/01/22 22:44:16;;;;;;;43.92;25.17;;;5.20;99.90;;;;;;7226939;32;20508;-77
2022/01/22 22:48:18;;;;;;;40.38;26.05;;;5.20;99.90;;;;;;7231846;32;20140;-77
2022/01/22 22:52:20;;;;;;;41.67;25.37;;;5.20;99.90;;;;;;7204004;32;20155;-77
2022/01/22 22:56:22;;;;;;;43.10;25.88;;;5.20;99.90;;;;;;7207917;32;20605;-76
2022/01/22 23:00:55;;;;;;;41.17;25.15;;;5.20;99.90;;;;;;7235137;32;20105;-77
2022/01/22 23:04:57;;;;;;;46.03;27.62;;;5.20;99.90;;;;;;7209720;32;20168;-76
2022/01/22 23:08:59;;;;;;;45.12;25.77;;;5.20;99.90;;;;;;7211633;32;20577;-75
2022/01/22 23:13:01;;;;;;;44.15;26.83;;;5.20;99.90;;;;;;7223795;32;21570;-76
2022/01/22 23:21:32;;;;;;;46.37;27.37;;;5.10;99.90;;;;;;7227326;32;20121;-77
2022/01/22 23:25:43;;;;;;;47.17;28.17;;;5.20;99.90;;;;;;7233757;32;20117;-77
2022/01/22 23:29:54;;;;;;;45.70;26.67;;;5.20;99.90;;;;;;7210272;32;21235;-77
2022/01/22 23:34:05;;;;;;;43.78;26.75;;;5.20;99.90;;;;;;7216145;32;20139;-77
2022/01/22 23:55:16;;;;;;;45.85;27.95;;;5.10;99.90;;;;;;7191557;32;20180;-77
2022/01/22 23:59:35;;;;;;;46.72;27.85;;;5.10;99.90;;;;;;7217416;32;20130;-76
